Midland, Texas
Current Conditions -  °F | °C
As of 10:55 PM on Monday 20 Oct 2014 (Local Time) from KMDD Reporting Station
Clear Clear  
Wind Chill: 68°   Ceiling: Unl
Heat Index: 68°   Visibility: 10mi
Dew Point: 53°   Wind: 7mph
Humidity: 57%   Direction: 130°SE
Pressure: 30.1"   Gusts: NA
Location:  32°N, 102.07°W
Report Text: KMDD 210355Z AUTO 13006KT 10SM CLR 20/12 A3010 RMK AO2 T02020115
Loading
Personal Weather Stations






























Interactive Weather Map
Tropical Storm Tracking
New forecast layout! Learn more

10-Day Weather Forecast

Advertisements
Track Severe Weather on mobile